createdAt,value
2018-04-15T00:01:08.557Z,100990.95
2018-04-15T00:03:36.249Z,100988.13
2018-04-15T00:06:03.848Z,100980.93
2018-04-15T00:08:31.551Z,100985.34
2018-04-15T00:10:59.162Z,100984.08
2018-04-15T00:13:26.825Z,100977.59
2018-04-15T00:15:54.475Z,100972.14
2018-04-15T00:18:22.287Z,100976.41
2018-04-15T00:20:49.892Z,100974.85
2018-04-15T00:23:17.572Z,100975.12
2018-04-15T00:25:45.227Z,100976.97
2018-04-15T00:28:12.829Z,100967.89
2018-04-15T00:30:40.481Z,100977.80
2018-04-15T00:33:08.179Z,100971.80
2018-04-15T00:35:35.823Z,100966.09
2018-04-15T00:38:03.433Z,100972.00
2018-04-15T00:40:31.134Z,100969.98
2018-04-15T00:42:58.802Z,100969.81
2018-04-15T00:45:27.173Z,100970.23
2018-04-15T00:47:55.793Z,100965.19
2018-04-15T00:50:23.898Z,100967.59
2018-04-15T00:52:52.115Z,100966.97
2018-04-15T00:55:19.975Z,100963.11
2018-04-15T00:57:49.780Z,100963.76
2018-04-15T01:00:18.485Z,100962.28
2018-04-15T01:02:46.230Z,100956.86
2018-04-15T01:05:13.925Z,100954.55
2018-04-15T01:07:41.529Z,100957.16
2018-04-15T01:10:09.129Z,100955.93
2018-04-15T01:12:36.785Z,100955.20
2018-04-15T01:15:04.373Z,100954.14
2018-04-15T01:17:32.013Z,100951.01
2018-04-15T01:19:59.605Z,100952.67
2018-04-15T01:22:27.244Z,100942.89
2018-04-15T01:27:31.352Z,100939.11
2018-04-15T01:30:00.342Z,100939.42
2018-04-15T01:32:28.118Z,100937.18
2018-04-15T01:34:56.444Z,100940.04
2018-04-15T01:37:24.185Z,100929.34
2018-04-15T01:39:51.950Z,100931.22
2018-04-15T01:42:19.719Z,100929.08
2018-04-15T01:44:48.593Z,100930.75
2018-04-15T01:47:17.445Z,100917.66
2018-04-15T01:49:46.213Z,100917.75
2018-04-15T01:52:14.002Z,100917.56
2018-04-15T01:54:41.773Z,100920.84
2018-04-15T01:57:09.547Z,100913.08
2018-04-15T01:59:37.382Z,100910.27
2018-04-15T02:02:05.318Z,100911.27
2018-04-15T02:04:33.051Z,100908.84
2018-04-15T02:07:00.713Z,100906.46
2018-04-15T02:09:28.402Z,100904.51
2018-04-15T02:11:56.057Z,100902.55
2018-04-15T02:14:23.836Z,100907.05
2018-04-15T02:16:51.535Z,100905.58
2018-04-15T02:19:19.246Z,100907.33
2018-04-15T02:21:46.869Z,100904.45
2018-04-15T02:24:14.614Z,100905.78
2018-04-15T02:26:42.313Z,100900.66
2018-04-15T02:29:09.966Z,100894.77
2018-04-15T02:31:37.668Z,100897.96
2018-04-15T02:34:05.322Z,100901.39
2018-04-15T02:36:32.988Z,100896.66
2018-04-15T02:39:00.807Z,100894.34
2018-04-15T02:41:28.474Z,100895.63
2018-04-15T02:43:56.167Z,100897.20
2018-04-15T02:46:23.871Z,100906.00
2018-04-15T02:48:51.497Z,100899.78
2018-04-15T02:51:19.131Z,100897.36
2018-04-15T02:53:46.755Z,100888.55
2018-04-15T02:56:14.448Z,100885.93
2018-04-15T02:58:42.214Z,100879.84
2018-04-15T03:01:10.089Z,100887.65
2018-04-15T03:03:37.721Z,100885.35
2018-04-15T03:06:05.413Z,100873.36
2018-04-15T03:08:33.037Z,100870.73
2018-04-15T03:11:00.674Z,100867.52
2018-04-15T03:13:28.275Z,100861.39
2018-04-15T03:15:55.953Z,100860.16
2018-04-15T03:18:23.651Z,100863.03
2018-04-15T03:20:51.525Z,100862.32
2018-04-15T03:23:19.129Z,100855.27
2018-04-15T03:25:46.792Z,100860.86
2018-04-15T03:28:14.396Z,100863.14
2018-04-15T03:30:42.065Z,100859.90
2018-04-15T03:33:09.670Z,100860.95
2018-04-15T03:35:37.288Z,100863.92
2018-04-15T03:38:06.779Z,100856.49
2018-04-15T03:40:34.432Z,100856.65
2018-04-15T03:43:02.144Z,100855.25
2018-04-15T03:45:29.823Z,100852.81
2018-04-15T03:47:57.609Z,100859.77
2018-04-15T03:50:25.270Z,100856.49
2018-04-15T03:52:52.957Z,100854.08
2018-04-15T03:55:20.581Z,100849.01
2018-04-15T03:57:48.240Z,100843.92
2018-04-15T04:00:15.947Z,100850.84
2018-04-15T04:02:43.629Z,100856.54
2018-04-15T04:05:11.232Z,100849.20
2018-04-15T04:07:38.924Z,100857.49
2018-04-15T04:10:06.568Z,100860.84
2018-04-15T04:12:34.203Z,100861.93
2018-04-15T04:15:01.887Z,100865.33
2018-04-15T04:17:41.145Z,100857.23
2018-04-15T04:20:20.490Z,100856.70
2018-04-15T04:22:59.754Z,100856.06
2018-04-15T04:25:35.960Z,100853.28
2018-04-15T04:28:03.654Z,100854.91
2018-04-15T04:30:31.364Z,100854.79
2018-04-15T04:32:58.977Z,100854.91
2018-04-15T04:35:26.737Z,100856.14
2018-04-15T04:37:54.457Z,100857.69
2018-04-15T04:40:22.332Z,100852.03
2018-04-15T04:42:50.020Z,100851.63
2018-04-15T04:45:17.713Z,100841.70
2018-04-15T04:47:45.384Z,100841.98
2018-04-15T04:50:13.069Z,100838.88
2018-04-15T04:52:40.769Z,100839.67
2018-04-15T04:55:08.511Z,100849.22
2018-04-15T04:57:36.250Z,100846.81
2018-04-15T05:00:03.891Z,100852.74
2018-04-15T05:02:31.601Z,100849.27
2018-04-15T05:05:01.349Z,100850.86
2018-04-15T05:07:29.524Z,100850.07
2018-04-15T05:09:57.397Z,100848.07
2018-04-15T05:12:25.320Z,100852.24
2018-04-15T05:14:54.559Z,100838.61
2018-04-15T05:17:22.679Z,100843.77
2018-04-15T05:19:51.210Z,100839.31
2018-04-15T05:22:19.552Z,100833.14
2018-04-15T05:24:47.802Z,100829.24
2018-04-15T05:27:15.700Z,100823.86
2018-04-15T05:29:43.710Z,100830.04
2018-04-15T05:37:59.592Z,100818.34
2018-04-15T05:43:13.077Z,100810.65
2018-04-15T05:45:40.742Z,100805.95
2018-04-15T05:48:08.416Z,100806.18
2018-04-15T05:50:36.041Z,100808.08
2018-04-15T05:53:03.686Z,100809.40
2018-04-15T05:55:31.371Z,100804.45
2018-04-15T05:57:59.038Z,100803.39
2018-04-15T06:00:26.652Z,100799.08
2018-04-15T06:02:54.488Z,100798.80
2018-04-15T06:05:22.137Z,100799.74
2018-04-15T06:07:49.754Z,100794.22
2018-04-15T06:10:17.428Z,100786.14
2018-04-15T06:12:45.044Z,100783.45
2018-04-15T06:15:12.842Z,100784.12
2018-04-15T06:17:40.478Z,100781.05
2018-04-15T06:20:08.153Z,100772.97
2018-04-15T06:22:35.797Z,100762.92
2018-04-15T06:25:03.579Z,100764.83
2018-04-15T06:27:31.338Z,100761.58
2018-04-15T06:29:59.030Z,100752.67
2018-04-15T06:32:26.680Z,100753.88
2018-04-15T06:34:54.431Z,100754.84
2018-04-15T06:37:22.128Z,100747.01
2018-04-15T06:39:49.816Z,100743.23
2018-04-15T06:42:17.522Z,100740.25
2018-04-15T06:44:45.224Z,100734.73
2018-04-15T06:47:12.930Z,100729.77
2018-04-15T06:49:40.597Z,100728.86
2018-04-15T06:52:08.308Z,100727.25
2018-04-15T06:54:35.993Z,100717.83
2018-04-15T06:57:03.736Z,100724.13
2018-04-15T06:59:31.416Z,100714.39
2018-04-15T07:01:59.089Z,100718.48
2018-04-15T07:04:26.701Z,100720.73
2018-04-15T07:06:54.406Z,100715.44
2018-04-15T07:09:22.030Z,100715.36
2018-04-15T07:11:49.906Z,100724.87
2018-04-15T07:14:17.835Z,100715.88
2018-04-15T07:16:45.559Z,100719.11
2018-04-15T07:19:13.199Z,100723.10
2018-04-15T07:21:40.886Z,100721.88
2018-04-15T07:24:08.537Z,100721.88
2018-04-15T07:26:36.209Z,100710.12
2018-04-15T07:29:03.859Z,100716.11
2018-04-15T07:31:31.512Z,100713.95
2018-04-15T07:33:59.136Z,100726.69
2018-04-15T07:36:26.943Z,100722.69
2018-04-15T07:38:54.642Z,100714.98
2018-04-15T07:41:22.317Z,100713.76
2018-04-15T07:43:50.038Z,100720.59
2018-04-15T07:46:17.669Z,100717.98
2018-04-15T07:48:45.320Z,100705.89
2018-04-15T07:51:12.963Z,100706.52
2018-04-15T07:53:40.654Z,100716.61
2018-04-15T07:56:08.313Z,100712.10
2018-04-15T07:58:36.020Z,100707.61
2018-04-15T08:01:03.626Z,100700.64
2018-04-15T08:03:31.273Z,100705.55
2018-04-15T08:05:58.906Z,100700.25
2018-04-15T08:08:26.674Z,100702.73
2018-04-15T08:10:54.332Z,100704.85
2018-04-15T08:13:21.996Z,100701.62
2018-04-15T08:15:49.654Z,100692.80
2018-04-15T08:18:17.345Z,100697.34
2018-04-15T08:20:44.977Z,100697.82
2018-04-15T08:23:12.732Z,100695.70
2018-04-15T08:25:40.469Z,100690.36
2018-04-15T08:28:08.157Z,100688.66
2018-04-15T08:30:35.789Z,100686.39
2018-04-15T08:33:03.500Z,100684.31
2018-04-15T08:35:31.445Z,100684.11
2018-04-15T08:37:59.262Z,100686.08
2018-04-15T08:40:26.953Z,100688.45
2018-04-15T08:42:54.601Z,100688.81
2018-04-15T08:45:22.245Z,100682.83
2018-04-15T08:47:49.995Z,100685.17
2018-04-15T08:50:17.674Z,100685.55
2018-04-15T08:52:45.311Z,100678.20
2018-04-15T08:55:13.081Z,100670.59
2018-04-15T08:57:40.695Z,100661.09
2018-04-15T09:00:08.384Z,100660.05
2018-04-15T09:02:36.026Z,100655.60
2018-04-15T09:05:04.004Z,100649.64
2018-04-15T09:07:33.786Z,100648.30
2018-04-15T09:10:01.401Z,100658.34
2018-04-15T09:12:30.050Z,100653.55
2018-04-15T09:14:59.580Z,100655.42
2018-04-15T09:17:27.679Z,100650.88
2018-04-15T09:19:59.081Z,100648.80
2018-04-15T09:22:28.063Z,100650.97
2018-04-15T09:24:55.853Z,100647.59
2018-04-15T09:27:23.601Z,100651.27
2018-04-15T09:29:52.827Z,100649.78
2018-04-15T09:32:20.880Z,100648.25
2018-04-15T09:34:49.143Z,100645.89
2018-04-15T09:37:17.183Z,100646.01
2018-04-15T09:39:45.053Z,100643.66
2018-04-15T09:42:12.768Z,100640.69
2018-04-15T09:44:41.455Z,100638.67
2018-04-15T09:47:09.255Z,100634.57
2018-04-15T09:49:36.975Z,100634.13
2018-04-15T09:52:06.591Z,100633.27
2018-04-15T09:54:35.075Z,100631.14
2018-04-15T09:57:03.867Z,100629.16
2018-04-15T09:59:31.801Z,100632.23
2018-04-15T10:02:01.638Z,100634.16
2018-04-15T10:04:32.501Z,100633.50
2018-04-15T10:07:00.249Z,100633.70
2018-04-15T10:09:28.279Z,100637.11
2018-04-15T10:11:56.266Z,100637.73
2018-04-15T10:14:23.946Z,100632.50
2018-04-15T10:16:52.912Z,100635.63
2018-04-15T10:19:20.576Z,100630.66
2018-04-15T10:21:49.147Z,100630.48
2018-04-15T10:24:16.986Z,100629.88
2018-04-15T10:26:44.570Z,100621.23
2018-04-15T10:29:12.354Z,100620.02
2018-04-15T10:31:40.003Z,100614.30
2018-04-15T10:34:07.683Z,100614.66
2018-04-15T10:36:35.323Z,100612.18
2018-04-15T10:39:03.014Z,100609.13
2018-04-15T10:41:30.630Z,100602.08
2018-04-15T10:43:58.308Z,100598.55
2018-04-15T10:46:25.936Z,100599.03
2018-04-15T10:48:53.560Z,100597.55
2018-04-15T10:51:21.213Z,100599.19
2018-04-15T10:53:48.822Z,100586.91
2018-04-15T10:56:16.546Z,100589.31
2018-04-15T10:58:44.149Z,100586.42
2018-04-15T11:01:11.820Z,100583.31
2018-04-15T11:03:39.410Z,100588.02
2018-04-15T11:06:07.056Z,100585.61
2018-04-15T11:08:34.658Z,100589.54
2018-04-15T11:11:02.423Z,100585.39
2018-04-15T11:13:30.132Z,100587.80
2018-04-15T11:15:57.816Z,100590.41
2018-04-15T11:18:25.421Z,100587.20
2018-04-15T11:20:53.074Z,100583.74
2018-04-15T11:23:20.689Z,100585.10
2018-04-15T11:25:48.365Z,100582.80
2018-04-15T11:28:15.967Z,100582.50
2018-04-15T11:30:43.605Z,100579.70
2018-04-15T11:33:11.232Z,100574.75
2018-04-15T11:35:38.872Z,100581.61
2018-04-15T11:38:06.471Z,100576.11
2018-04-15T11:40:34.133Z,100566.61
2018-04-15T11:43:01.822Z,100569.17
2018-04-15T11:45:29.451Z,100566.02
2018-04-15T11:47:57.152Z,100558.98
2018-04-15T11:50:24.774Z,100556.77
2018-04-15T11:52:52.439Z,100558.11
2018-04-15T11:55:20.114Z,100553.00
2018-04-15T11:57:47.805Z,100542.09
2018-04-15T12:00:15.416Z,100549.41
2018-04-15T12:02:43.086Z,100541.48
2018-04-15T12:05:10.685Z,100543.57
2018-04-15T12:07:38.444Z,100546.20
2018-04-15T12:10:06.034Z,100538.27
2018-04-15T12:12:33.672Z,100533.98
2018-04-15T12:15:01.359Z,100529.59
2018-04-15T12:17:29.018Z,100532.11
2018-04-15T12:19:56.641Z,100522.66
2018-04-15T12:22:24.237Z,100520.34
2018-04-15T12:24:51.850Z,100520.69
2018-04-15T12:27:19.471Z,100520.30
2018-04-15T12:29:47.206Z,100522.08
2018-04-15T12:32:14.824Z,100523.05
2018-04-15T12:34:42.547Z,100518.98
2018-04-15T12:37:10.150Z,100509.23
2018-04-15T12:39:37.856Z,100517.59
2018-04-15T12:42:05.470Z,100506.33
2018-04-15T12:44:33.322Z,100515.39
2018-04-15T12:47:01.043Z,100510.66
2018-04-15T12:49:28.765Z,100511.58
2018-04-15T12:51:56.474Z,100506.80
2018-04-15T12:54:24.166Z,100498.75
2018-04-15T12:56:51.857Z,100494.05
2018-04-15T12:59:19.556Z,100499.75
2018-04-15T13:01:47.340Z,100503.69
2018-04-15T13:04:14.977Z,100493.91
2018-04-15T13:06:42.653Z,100495.88
2018-04-15T13:09:10.257Z,100491.06
2018-04-15T13:11:39.094Z,100489.38
2018-04-15T13:14:06.721Z,100482.78
2018-04-15T13:16:34.740Z,100484.37
2018-04-15T13:19:02.346Z,100472.22
2018-04-15T13:21:30.004Z,100476.37
2018-04-15T13:23:57.748Z,100473.61
2018-04-15T13:26:25.394Z,100462.82
2018-04-15T13:28:53.140Z,100456.91
2018-04-15T13:31:20.776Z,100456.45
2018-04-15T13:33:48.608Z,100453.77
2018-04-15T13:36:16.514Z,100461.78
2018-04-15T13:38:44.734Z,100451.59
2018-04-15T13:41:13.615Z,100451.42
2018-04-15T13:43:42.613Z,100447.15
2018-04-15T13:46:10.225Z,100449.80
2018-04-15T13:48:38.178Z,100445.47
2018-04-15T13:51:05.783Z,100438.84
2018-04-15T13:53:34.232Z,100427.64
2018-04-15T13:56:01.971Z,100426.86
2018-04-15T13:58:29.613Z,100423.37
2018-04-15T14:00:58.657Z,100424.81
2018-04-15T14:03:27.845Z,100429.62
2018-04-15T14:05:55.542Z,100421.17
2018-04-15T14:08:23.337Z,100419.84
2018-04-15T14:10:51.126Z,100411.38
2018-04-15T14:13:18.773Z,100406.95
2018-04-15T14:15:46.388Z,100407.89
2018-04-15T14:18:14.027Z,100401.95
2018-04-15T14:20:41.702Z,100392.51
2018-04-15T14:23:09.317Z,100392.47
2018-04-15T14:25:36.969Z,100395.98
2018-04-15T14:28:04.580Z,100394.66
2018-04-15T14:30:32.420Z,100388.69
2018-04-15T14:33:00.020Z,100388.11
2018-04-15T14:35:27.939Z,100398.03
2018-04-15T14:37:55.561Z,100395.94
2018-04-15T14:40:23.221Z,100392.71
2018-04-15T14:42:50.836Z,100386.25
2018-04-15T14:45:18.480Z,100382.34
2018-04-15T14:47:46.112Z,100379.48
2018-04-15T14:50:13.781Z,100380.72
2018-04-15T14:52:41.353Z,100383.10
2018-04-15T14:55:09.013Z,100377.35
2018-04-15T14:57:36.632Z,100384.12
2018-04-15T15:00:04.246Z,100375.91
2018-04-15T15:02:31.892Z,100376.73
2018-04-15T15:04:59.509Z,100371.54
2018-04-15T15:07:27.274Z,100364.11
2018-04-15T15:09:54.927Z,100362.75
2018-04-15T15:12:22.605Z,100359.92
2018-04-15T15:14:50.305Z,100364.08
2018-04-15T15:17:17.949Z,100366.20
2018-04-15T15:19:45.645Z,100358.42
2018-04-15T15:22:13.278Z,100362.62
2018-04-15T15:24:40.917Z,100361.70
2018-04-15T15:27:08.560Z,100361.22
2018-04-15T15:29:36.164Z,100360.59
2018-04-15T15:32:03.883Z,100362.48
2018-04-15T15:34:31.493Z,100359.48
2018-04-15T15:36:59.142Z,100361.30
2018-04-15T15:39:26.743Z,100359.11
2018-04-15T15:41:54.453Z,100360.80
2018-04-15T15:44:22.152Z,100360.77
2018-04-15T15:46:49.766Z,100352.69
2018-04-15T15:49:17.433Z,100354.94
2018-04-15T15:51:45.157Z,100359.73
2018-04-15T15:54:12.788Z,100356.33
2018-04-15T15:56:40.419Z,100355.84
2018-04-15T15:59:08.059Z,100354.20
2018-04-15T16:01:35.659Z,100358.06
2018-04-15T16:04:03.325Z,100362.30
2018-04-15T16:06:30.934Z,100360.27
2018-04-15T16:08:58.569Z,100363.49
2018-04-15T16:11:26.172Z,100364.23
2018-04-15T16:13:53.825Z,100357.72
2018-04-15T16:16:21.417Z,100364.42
2018-04-15T16:18:49.037Z,100360.51
2018-04-15T16:21:16.692Z,100365.77
2018-04-15T16:23:44.284Z,100362.63
2018-04-15T16:26:11.939Z,100361.39
2018-04-15T16:28:39.546Z,100360.17
2018-04-15T16:31:07.269Z,100368.36
2018-04-15T16:33:34.849Z,100367.53
2018-04-15T16:36:02.497Z,100364.86
2018-04-15T16:38:30.117Z,100370.06
2018-04-15T16:40:57.772Z,100370.49
2018-04-15T16:43:25.389Z,100376.64
2018-04-15T16:45:53.030Z,100376.30
2018-04-15T16:48:20.712Z,100381.90
2018-04-15T16:50:48.386Z,100381.98
2018-04-15T16:53:15.977Z,100385.02
2018-04-15T16:55:43.687Z,100388.92
2018-04-15T16:58:11.292Z,100385.55
2018-04-15T17:00:38.937Z,100385.94
2018-04-15T17:03:06.623Z,100387.29
2018-04-15T17:05:34.258Z,100387.62
2018-04-15T17:08:01.901Z,100391.95
2018-04-15T17:10:29.529Z,100398.36
2018-04-15T17:12:57.298Z,100398.53
2018-04-15T17:15:24.910Z,100401.08
2018-04-15T17:17:53.247Z,100402.84
2018-04-15T17:20:20.866Z,100398.78
2018-04-15T17:22:48.624Z,100399.64
2018-04-15T17:25:16.286Z,100397.83
2018-04-15T17:27:43.920Z,100394.70
2018-04-15T17:30:11.674Z,100394.70
2018-04-15T17:32:39.405Z,100391.66
2018-04-15T17:35:07.016Z,100399.81
2018-04-15T17:37:34.677Z,100401.09
2018-04-15T17:40:02.395Z,100401.25
2018-04-15T17:42:30.055Z,100399.36
2018-04-15T17:44:57.691Z,100394.26
2018-04-15T17:47:25.393Z,100397.38
2018-04-15T17:49:53.003Z,100396.03
2018-04-15T17:52:20.685Z,100400.27
2018-04-15T17:54:48.305Z,100398.94
2018-04-15T17:57:15.958Z,100399.27
2018-04-15T17:59:43.573Z,100402.31
2018-04-15T18:02:11.278Z,100400.13
2018-04-15T18:04:38.922Z,100406.13
2018-04-15T18:07:06.529Z,100401.03
2018-04-15T18:09:34.314Z,100408.84
2018-04-15T18:12:01.955Z,100407.27
2018-04-15T18:14:29.727Z,100411.83
2018-04-15T18:16:57.366Z,100411.98
2018-04-15T18:19:25.052Z,100416.06
2018-04-15T18:21:52.700Z,100420.02
2018-04-15T18:24:20.295Z,100426.81
2018-04-15T18:26:47.997Z,100422.98
2018-04-15T18:29:15.681Z,100424.67
2018-04-15T18:31:43.343Z,100429.53
2018-04-15T18:34:11.063Z,100429.87
2018-04-15T18:36:38.676Z,100433.37
2018-04-15T18:39:06.323Z,100437.52
2018-04-15T18:41:34.011Z,100440.64
2018-04-15T18:44:01.664Z,100433.77
2018-04-15T18:46:29.306Z,100432.80
2018-04-15T18:48:56.985Z,100434.94
2018-04-15T18:51:24.646Z,100435.25
2018-04-15T18:53:52.348Z,100435.80
2018-04-15T18:56:20.013Z,100438.56
2018-04-15T18:58:47.726Z,100432.80
2018-04-15T19:01:15.366Z,100432.50
2018-04-15T19:03:43.054Z,100438.98
2018-04-15T19:06:10.766Z,100436.28
2018-04-15T19:08:38.374Z,100436.08
2018-04-15T19:11:06.035Z,100435.71
2018-04-15T19:13:33.895Z,100438.88
2018-04-15T19:16:01.558Z,100440.00
2018-04-15T19:18:29.209Z,100441.58
2018-04-15T19:20:56.878Z,100439.78
2018-04-15T19:23:24.538Z,100435.78
2018-04-15T19:25:52.209Z,100443.31
2018-04-15T19:28:19.856Z,100435.05
2018-04-15T19:30:47.518Z,100439.02
2018-04-15T19:33:15.222Z,100443.84
2018-04-15T19:35:42.884Z,100444.34
2018-04-15T19:38:10.476Z,100448.19
2018-04-15T19:40:38.085Z,100444.78
2018-04-15T19:43:05.753Z,100442.48
2018-04-15T19:45:33.381Z,100437.92
2018-04-15T19:48:01.011Z,100438.23
2018-04-15T19:50:28.613Z,100434.90
2018-04-15T19:52:56.281Z,100436.66
2018-04-15T19:55:23.899Z,100435.44
2018-04-15T19:57:51.558Z,100431.13
2018-04-15T20:00:19.155Z,100437.17
2018-04-15T20:02:46.816Z,100432.70
2018-04-15T20:05:14.451Z,100423.00
2018-04-15T20:07:42.133Z,100423.77
2018-04-15T20:10:09.760Z,100414.77
2018-04-15T20:12:37.373Z,100414.41
2018-04-15T20:15:05.040Z,100414.92
2018-04-15T20:17:32.748Z,100417.28
2018-04-15T20:20:00.389Z,100415.77
2018-04-15T20:22:28.010Z,100416.65
2018-04-15T20:24:55.619Z,100415.84
2018-04-15T20:27:23.213Z,100417.03
2018-04-15T20:29:50.860Z,100417.66
2018-04-15T20:32:18.493Z,100419.58
2018-04-15T20:34:46.139Z,100416.72
2018-04-15T20:37:13.745Z,100430.78
2018-04-15T20:39:41.452Z,100429.89
2018-04-15T20:42:09.102Z,100431.70
2018-04-15T20:44:36.764Z,100437.94
2018-04-15T20:47:04.385Z,100441.96
2018-04-15T20:49:32.022Z,100439.41
2018-04-15T20:51:59.622Z,100440.55
2018-04-15T20:54:27.379Z,100439.91
2018-04-15T20:56:54.972Z,100447.42
2018-04-15T20:59:22.870Z,100442.94
2018-04-15T21:01:50.548Z,100438.14
2018-04-15T21:04:18.229Z,100444.66
2018-04-15T21:06:45.876Z,100450.53
2018-04-15T21:09:13.489Z,100448.89
2018-04-15T21:11:41.130Z,100451.55
2018-04-15T21:14:08.795Z,100456.28
2018-04-15T21:16:36.451Z,100458.34
2018-04-15T21:19:04.038Z,100457.28
2018-04-15T21:21:31.694Z,100461.77
2018-04-15T21:23:59.300Z,100465.44
2018-04-15T21:26:26.976Z,100463.25
2018-04-15T21:28:54.582Z,100464.47
2018-04-15T21:31:22.253Z,100469.55
2018-04-15T21:33:49.863Z,100469.30
2018-04-15T21:36:17.526Z,100474.02
2018-04-15T21:38:45.139Z,100461.70
2018-04-15T21:41:12.849Z,100465.81
2018-04-15T21:43:40.559Z,100464.66
2018-04-15T21:46:08.208Z,100459.30
2018-04-15T21:48:35.810Z,100454.95
2018-04-15T21:51:03.453Z,100456.98
2018-04-15T21:53:31.171Z,100455.04
2018-04-15T21:55:58.773Z,100454.55
2018-04-15T21:58:26.446Z,100448.77
2018-04-15T22:00:54.181Z,100444.91
2018-04-15T22:03:21.826Z,100434.14
2018-04-15T22:05:49.426Z,100441.95
2018-04-15T22:08:17.078Z,100437.16
2018-04-15T22:10:47.226Z,100438.16
2018-04-15T22:13:16.097Z,100436.19
2018-04-15T22:15:45.975Z,100443.26
2018-04-15T22:18:14.795Z,100441.31
2018-04-15T22:20:43.944Z,100439.97
2018-04-15T22:25:47.493Z,100451.58
2018-04-15T22:28:15.311Z,100452.16
2018-04-15T22:30:43.769Z,100449.31
2018-04-15T22:33:12.027Z,100453.10
2018-04-15T22:35:44.039Z,100441.41
2018-04-15T22:38:15.966Z,100447.45
2018-04-15T22:44:06.383Z,100445.97
2018-04-15T22:46:45.654Z,100438.88
2018-04-15T22:49:24.200Z,100435.45
2018-04-15T22:52:02.891Z,100437.66
2018-04-15T22:54:33.500Z,100433.66
2018-04-15T22:59:47.619Z,100433.88
2018-04-15T23:05:05.183Z,100439.65
2018-04-15T23:07:32.797Z,100433.25
2018-04-15T23:10:00.425Z,100437.39
2018-04-15T23:12:28.069Z,100432.02
2018-04-15T23:14:55.765Z,100429.87
2018-04-15T23:17:23.420Z,100430.21
2018-04-15T23:19:51.077Z,100437.06
2018-04-15T23:22:18.676Z,100439.98
2018-04-15T23:24:46.398Z,100435.84
2018-04-15T23:27:14.078Z,100436.30
2018-04-15T23:29:41.817Z,100439.12
2018-04-15T23:32:09.406Z,100443.97
2018-04-15T23:34:37.168Z,100448.08
2018-04-15T23:37:04.884Z,100447.63
2018-04-15T23:39:32.501Z,100448.48
2018-04-15T23:42:00.160Z,100449.74
2018-04-15T23:44:27.853Z,100444.58
2018-04-15T23:46:55.519Z,100443.66
2018-04-15T23:49:23.110Z,100442.63
2018-04-15T23:51:50.843Z,100449.39
2018-04-15T23:54:18.527Z,100444.37
2018-04-15T23:56:51.504Z,100442.91
2018-04-15T23:59:19.141Z,100444.37
